Hafnia Hope — 9V3230 — position and weather

sailwx.info

Track history (hours):
 
Tides and Currents Weather Stations Pressure Air Temp Water Temp Dewpoint Dewpoint Depression Visibility Wind Speed Wind Dir Waves Ship Positions

Hafnia Hope

Last reported at 2018-Jul-20 19:02 UTC. Time now 2018-Jul-22 08:25 UTC.
Position N 32°49' E 012°40'.

Length 182 m; draft 9.4 m.

Type: Ship. MMSI: 566015000.

Date/timePositionNaut miles runAvg speedWind from/ knotsBaromVisibWave heightAir tempDewpointWater temp
2018-Jul-20 19:02N 32°49' E 012°40'0 0.0
2018-Jul-20 18:47N 32°49' E 012°40'0 0.0
2018-Jul-20 18:29N 32°49' E 012°40'0 0.0
2018-Jul-20 17:56N 32°49' E 012°40'0 0.0
2018-Jul-20 17:29N 32°49' E 012°40'0 0.0
2018-Jul-20 16:23N 32°49' E 012°40'0 0.0
2018-Jul-20 15:56N 32°49' E 012°40'0 0.0
2018-Jul-20 15:29N 32°49' E 012°40'0 0.0
2018-Jul-20 14:59N 32°49' E 012°40'0 0.0
2018-Jul-20 11:50N 32°49' E 012°40'0 0.0
2018-Jul-20 07:08N 32°49' E 012°40'0 0.1
2018-Jul-20 06:59N 32°49' E 012°40'0 0.0
2018-Jul-20 06:26N 32°49' E 012°40'0 0.3
2018-Jul-20 06:00N 32°49' E 012°40'5710.2
2018-Jul-20 00:24N 33°32' E 011°55'511.8
2018-Jul-19 23:59N 33°35' E 011°51'611.7
2018-Jul-19 23:30N 33°39' E 011°45'611.6
2018-Jul-19 22:59N 33°42' E 011°40'711.7
2018-Jul-19 22:23N 33°47' E 011°33'411.7
2018-Jul-19 22:00N 33°49' E 011°29'711.6
2018-Jul-19 21:25N 33°54' E 011°22'2211.3
2018-Jul-19 19:27N 34°04' E 010°59'511.1
2018-Jul-19 19:00N 34°05' E 010°53'611.1
2018-Jul-19 18:27N 34°05' E 010°45'511.0
2018-Jul-19 18:00N 34°05' E 010°39'611.0
2018-Jul-19 17:30N 34°05' E 010°33'810.7
2018-Jul-19 16:43N 34°06' E 010°23'210.9
2018-Jul-19 16:30N 34°07' E 010°20'611.1
2018-Jul-19 16:00N 34°10' E 010°14'510.8
2018-Jul-19 15:30N 34°13' E 010°09'  
2018-Jul-16 22:26N 34°15' E 010°08'3 7.1
2018-Jul-16 22:00N 34°12' E 010°09'4 7.3
2018-Jul-16 21:30N 34°10' E 010°13'4 8.6
2018-Jul-16 21:00N 34°08' E 010°17'4 7.8
2018-Jul-16 20:30N 34°07' E 010°22'4 7.1
2018-Jul-16 20:00N 34°06' E 010°26'4 7.1
2018-Jul-16 19:30N 34°06' E 010°30'4 7.2
2018-Jul-16 19:00N 34°06' E 010°35'4 7.2
2018-Jul-16 18:30N 34°06' E 010°39'3 5.8
2018-Jul-16 18:00N 34°06' E 010°42'3 5.9
2018-Jul-16 17:30N 34°06' E 010°46'3 6.1
2018-Jul-16 17:00N 34°06' E 010°50'3 6.1
2018-Jul-16 16:29N 34°06' E 010°54'5 6.2
2018-Jul-16 15:40N 34°06' E 010°60'2 6.3
2018-Jul-16 15:26N 34°06' E 011°01'3 6.2
2018-Jul-16 15:00N 34°06' E 011°05'3 6.8
2018-Jul-16 14:30N 34°06' E 011°09'4 7.8
2018-Jul-16 14:00N 34°05' E 011°13'5 7.6
2018-Jul-16 13:19N 34°05' E 011°20'2 7.4
2018-Jul-16 13:00N 34°06' E 011°22'4 7.4
2018-Jul-16 12:30N 34°05' E 011°27'4 7.5
2018-Jul-16 12:00N 34°05' E 011°31'4 7.5
2018-Jul-16 11:30N 34°05' E 011°36'4 7.5
2018-Jul-16 11:00N 34°05' E 011°40'4 7.2
2018-Jul-16 10:31N 34°05' E 011°45'4 7.3
2018-Jul-16 10:00N 34°07' E 011°49'4 7.3
2018-Jul-16 09:30N 34°09' E 011°52'4 7.3
2018-Jul-16 09:00N 34°11' E 011°56'4 7.3
2018-Jul-16 08:30N 34°13' E 012°00'4 7.4
2018-Jul-16 08:00N 34°15' E 012°04'4 7.5
2018-Jul-16 07:30N 34°17' E 012°08'5 9.2
2018-Jul-16 07:00N 34°19' E 012°13'271 9.3
2018-Jul-15 01:42N 37°19' E 016°23'  
2018-Jul-12 16:25N 44°12' E 013°56'1510.0
2018-Jul-12 14:57N 44°24' E 013°45'510.2
2018-Jul-12 14:28N 44°28' E 013°41'510.2
2018-Jul-12 14:00N 44°32' E 013°38'510.2
2018-Jul-12 13:30N 44°36' E 013°34'5 9.8
2018-Jul-12 13:00N 44°41' E 013°30'5 9.7
2018-Jul-12 12:30N 44°45' E 013°27'5 9.7
2018-Jul-12 12:00N 44°49' E 013°23'5 9.6
2018-Jul-12 11:30N 44°53' E 013°19'5 9.8
2018-Jul-12 11:00N 44°57' E 013°15'510.0
2018-Jul-12 10:30N 45°01' E 013°11'5 9.9
2018-Jul-12 10:00N 45°05' E 013°07'5 9.9
2018-Jul-12 09:30N 45°09' E 013°04'5 9.9
2018-Jul-12 09:00N 45°14' E 013°02'510.3
2018-Jul-12 08:30N 45°19' E 013°01'5 9.9
2018-Jul-12 08:00N 45°24' E 013°00'510.1
2018-Jul-12 07:30N 45°28' E 013°05'510.2
2018-Jul-12 07:00N 45°31' E 013°11'510.4
2018-Jul-12 06:30N 45°33' E 013°18'510.4
2018-Jul-12 06:00N 45°35' E 013°24'710.2
2018-Jul-12 05:18N 45°37' E 013°34'310.2
2018-Jul-12 05:00N 45°36' E 013°38'5 9.6
2018-Jul-12 04:30N 45°34' E 013°44'0 0.7
2018-Jul-12 03:59N 45°34' E 013°44'0 0.0
2018-Jul-12 03:29N 45°34' E 013°44'0 0.0
2018-Jul-12 02:56N 45°34' E 013°44'0 0.0
2018-Jul-12 02:29N 45°34' E 013°44'0 0.0
2018-Jul-12 01:59N 45°34' E 013°44'0 0.0
2018-Jul-12 01:29N 45°34' E 013°44'0 0.0
2018-Jul-12 00:59N 45°34' E 013°44'0 0.0
2018-Jul-12 00:29N 45°34' E 013°44'0 0.0
2018-Jul-11 23:59N 45°34' E 013°44'0 0.0
2018-Jul-11 23:29N 45°34' E 013°44'0 0.0
2018-Jul-11 22:50N 45°34' E 013°44'0 0.0
2018-Jul-11 22:29N 45°34' E 013°44'0 0.0
2018-Jul-11 21:56N 45°34' E 013°44'0 0.0
2018-Jul-11 21:20N 45°34' E 013°44'0 0.0
2018-Jul-11 20:56N 45°34' E 013°44'0 0.0
2018-Jul-11 20:26N 45°34' E 013°44'0 0.0
2018-Jul-11 19:59N 45°34' E 013°44'0 0.0
2018-Jul-11 19:29N 45°34' E 013°44'0 0.0
2018-Jul-11 18:59N 45°34' E 013°44'0 0.0
2018-Jul-11 18:29N 45°34' E 013°44'0 0.0
2018-Jul-11 17:59N 45°34' E 013°44'0 0.0
2018-Jul-11 17:23N 45°34' E 013°44'0 0.0
2018-Jul-11 16:59N 45°34' E 013°44'0 0.0
2018-Jul-11 16:29N 45°34' E 013°44'0 0.0
2018-Jul-11 15:59N 45°34' E 013°44'0 0.0
2018-Jul-11 15:29N 45°34' E 013°44'0 0.0
2018-Jul-11 14:59N 45°34' E 013°44'0 0.0
2018-Jul-11 14:26N 45°34' E 013°44'0 0.0
2018-Jul-11 13:56N 45°34' E 013°44'0 0.0
2018-Jul-11 13:29N 45°34' E 013°44'0 0.0
2018-Jul-11 12:59N 45°34' E 013°44'0 0.0
2018-Jul-11 12:29N 45°34' E 013°44'0 0.0
2018-Jul-11 11:56N 45°34' E 013°44'0 0.0
2018-Jul-11 11:26N 45°34' E 013°44'0 0.0
2018-Jul-11 10:59N 45°34' E 013°44'0 0.0
2018-Jul-11 10:11N 45°34' E 013°44'0 0.0
2018-Jul-11 09:59N 45°34' E 013°44'0 0.0
2018-Jul-11 09:29N 45°34' E 013°44'0 0.0
2018-Jul-11 08:59N 45°34' E 013°44'0 0.0
2018-Jul-11 08:26N 45°34' E 013°44'0 0.0
2018-Jul-11 07:59N 45°34' E 013°44'0 0.0
2018-Jul-11 07:29N 45°34' E 013°44'0 0.0
2018-Jul-11 06:53N 45°34' E 013°44'0 0.0
2018-Jul-11 06:29N 45°34' E 013°44'0 0.0
2018-Jul-11 05:59N 45°34' E 013°44'0 0.0
2018-Jul-11 05:29N 45°34' E 013°44'0 0.0
2018-Jul-11 04:50N 45°34' E 013°44'0 0.0
2018-Jul-11 04:29N 45°34' E 013°44'0 0.0
2018-Jul-11 03:59N 45°34' E 013°44'0 0.0
2018-Jul-11 03:29N 45°34' E 013°44'0 0.0
2018-Jul-11 02:56N 45°34' E 013°44'0 0.0
2018-Jul-11 02:20N 45°34' E 013°44'0 0.0
2018-Jul-11 01:59N 45°34' E 013°44'0 0.0
2018-Jul-11 01:23N 45°34' E 013°44'0 0.0
2018-Jul-11 00:59N 45°34' E 013°44'0 0.0
2018-Jul-11 00:29N 45°34' E 013°44'0 0.0
2018-Jul-10 23:59N 45°34' E 013°44'0 0.0
2018-Jul-10 23:29N 45°34' E 013°44'0 0.0
2018-Jul-10 22:59N 45°34' E 013°44'0 0.0
2018-Jul-10 22:26N 45°34' E 013°44'0 0.0
2018-Jul-10 21:56N 45°34' E 013°44'0 0.0
2018-Jul-10 21:29N 45°34' E 013°44'0 0.0
2018-Jul-10 20:56N 45°34' E 013°44'0 0.0
2018-Jul-10 20:23N 45°34' E 013°44'0 0.0
2018-Jul-10 19:56N 45°34' E 013°44'0 0.0
2018-Jul-10 19:23N 45°34' E 013°44'  
Track history (hours):
 
Tides and Currents Weather Stations Pressure Air Temp Water Temp Dewpoint Dewpoint Depression Visibility Wind Speed Wind Dir Waves Ship Positions

Hafnia Hope

Last reported at 2018-Jul-20 19:02 UTC. Time now 2018-Jul-22 08:25 UTC.
Position N 32°49' E 012°40'.

Length 182 m; draft 9.4 m.

Type: Ship. MMSI: 566015000.

Date/timePositionNaut miles runAvg speedWind from/ knotsBaromVisibWave heightAir tempDewpointWater temp
2018-Jul-20 19:02N 32°49' E 012°40'0 0.0
2018-Jul-20 18:47N 32°49' E 012°40'0 0.0
2018-Jul-20 18:29N 32°49' E 012°40'0 0.0
2018-Jul-20 17:56N 32°49' E 012°40'0 0.0
2018-Jul-20 17:29N 32°49' E 012°40'0 0.0
2018-Jul-20 16:23N 32°49' E 012°40'0 0.0
2018-Jul-20 15:56N 32°49' E 012°40'0 0.0
2018-Jul-20 15:29N 32°49' E 012°40'0 0.0
2018-Jul-20 14:59N 32°49' E 012°40'0 0.0
2018-Jul-20 11:50N 32°49' E 012°40'0 0.0
2018-Jul-20 07:08N 32°49' E 012°40'0 0.1
2018-Jul-20 06:59N 32°49' E 012°40'0 0.0
2018-Jul-20 06:26N 32°49' E 012°40'0 0.3
2018-Jul-20 06:00N 32°49' E 012°40'5710.2
2018-Jul-20 00:24N 33°32' E 011°55'511.8
2018-Jul-19 23:59N 33°35' E 011°51'611.7
2018-Jul-19 23:30N 33°39' E 011°45'611.6
2018-Jul-19 22:59N 33°42' E 011°40'711.7
2018-Jul-19 22:23N 33°47' E 011°33'411.7
2018-Jul-19 22:00N 33°49' E 011°29'711.6
2018-Jul-19 21:25N 33°54' E 011°22'2211.3
2018-Jul-19 19:27N 34°04' E 010°59'511.1
2018-Jul-19 19:00N 34°05' E 010°53'611.1
2018-Jul-19 18:27N 34°05' E 010°45'511.0
2018-Jul-19 18:00N 34°05' E 010°39'611.0
2018-Jul-19 17:30N 34°05' E 010°33'810.7
2018-Jul-19 16:43N 34°06' E 010°23'210.9
2018-Jul-19 16:30N 34°07' E 010°20'611.1
2018-Jul-19 16:00N 34°10' E 010°14'510.8
2018-Jul-19 15:30N 34°13' E 010°09'  
2018-Jul-16 22:26N 34°15' E 010°08'3 7.1
2018-Jul-16 22:00N 34°12' E 010°09'4 7.3
2018-Jul-16 21:30N 34°10' E 010°13'4 8.6
2018-Jul-16 21:00N 34°08' E 010°17'4 7.8
2018-Jul-16 20:30N 34°07' E 010°22'4 7.1
2018-Jul-16 20:00N 34°06' E 010°26'4 7.1
2018-Jul-16 19:30N 34°06' E 010°30'4 7.2
2018-Jul-16 19:00N 34°06' E 010°35'4 7.2
2018-Jul-16 18:30N 34°06' E 010°39'3 5.8
2018-Jul-16 18:00N 34°06' E 010°42'3 5.9
2018-Jul-16 17:30N 34°06' E 010°46'3 6.1
2018-Jul-16 17:00N 34°06' E 010°50'3 6.1
2018-Jul-16 16:29N 34°06' E 010°54'5 6.2
2018-Jul-16 15:40N 34°06' E 010°60'2 6.3
2018-Jul-16 15:26N 34°06' E 011°01'3 6.2
2018-Jul-16 15:00N 34°06' E 011°05'3 6.8
2018-Jul-16 14:30N 34°06' E 011°09'4 7.8
2018-Jul-16 14:00N 34°05' E 011°13'5 7.6
2018-Jul-16 13:19N 34°05' E 011°20'2 7.4
2018-Jul-16 13:00N 34°06' E 011°22'4 7.4
2018-Jul-16 12:30N 34°05' E 011°27'4 7.5
2018-Jul-16 12:00N 34°05' E 011°31'4 7.5
2018-Jul-16 11:30N 34°05' E 011°36'4 7.5
2018-Jul-16 11:00N 34°05' E 011°40'4 7.2
2018-Jul-16 10:31N 34°05' E 011°45'4 7.3
2018-Jul-16 10:00N 34°07' E 011°49'4 7.3
2018-Jul-16 09:30N 34°09' E 011°52'4 7.3
2018-Jul-16 09:00N 34°11' E 011°56'4 7.3
2018-Jul-16 08:30N 34°13' E 012°00'4 7.4
2018-Jul-16 08:00N 34°15' E 012°04'4 7.5
2018-Jul-16 07:30N 34°17' E 012°08'5 9.2
2018-Jul-16 07:00N 34°19' E 012°13'271 9.3
2018-Jul-15 01:42N 37°19' E 016°23'  
2018-Jul-12 16:25N 44°12' E 013°56'1510.0
2018-Jul-12 14:57N 44°24' E 013°45'510.2
2018-Jul-12 14:28N 44°28' E 013°41'510.2
2018-Jul-12 14:00N 44°32' E 013°38'510.2
2018-Jul-12 13:30N 44°36' E 013°34'5 9.8
2018-Jul-12 13:00N 44°41' E 013°30'5 9.7
2018-Jul-12 12:30N 44°45' E 013°27'5 9.7
2018-Jul-12 12:00N 44°49' E 013°23'5 9.6
2018-Jul-12 11:30N 44°53' E 013°19'5 9.8
2018-Jul-12 11:00N 44°57' E 013°15'510.0
2018-Jul-12 10:30N 45°01' E 013°11'5 9.9
2018-Jul-12 10:00N 45°05' E 013°07'5 9.9
2018-Jul-12 09:30N 45°09' E 013°04'5 9.9
2018-Jul-12 09:00N 45°14' E 013°02'510.3
2018-Jul-12 08:30N 45°19' E 013°01'5 9.9
2018-Jul-12 08:00N 45°24' E 013°00'510.1
2018-Jul-12 07:30N 45°28' E 013°05'510.2
2018-Jul-12 07:00N 45°31' E 013°11'510.4
2018-Jul-12 06:30N 45°33' E 013°18'510.4
2018-Jul-12 06:00N 45°35' E 013°24'710.2
2018-Jul-12 05:18N 45°37' E 013°34'310.2
2018-Jul-12 05:00N 45°36' E 013°38'5 9.6
2018-Jul-12 04:30N 45°34' E 013°44'0 0.7
2018-Jul-12 03:59N 45°34' E 013°44'0 0.0
2018-Jul-12 03:29N 45°34' E 013°44'0 0.0
2018-Jul-12 02:56N 45°34' E 013°44'0 0.0
2018-Jul-12 02:29N 45°34' E 013°44'0 0.0
2018-Jul-12 01:59N 45°34' E 013°44'0 0.0
2018-Jul-12 01:29N 45°34' E 013°44'0 0.0
2018-Jul-12 00:59N 45°34' E 013°44'0 0.0
2018-Jul-12 00:29N 45°34' E 013°44'0 0.0
2018-Jul-11 23:59N 45°34' E 013°44'0 0.0
2018-Jul-11 23:29N 45°34' E 013°44'0 0.0
2018-Jul-11 22:50N 45°34' E 013°44'0 0.0
2018-Jul-11 22:29N 45°34' E 013°44'0 0.0
2018-Jul-11 21:56N 45°34' E 013°44'0 0.0
2018-Jul-11 21:20N 45°34' E 013°44'0 0.0
2018-Jul-11 20:56N 45°34' E 013°44'0 0.0
2018-Jul-11 20:26N 45°34' E 013°44'0 0.0
2018-Jul-11 19:59N 45°34' E 013°44'0 0.0
2018-Jul-11 19:29N 45°34' E 013°44'0 0.0
2018-Jul-11 18:59N 45°34' E 013°44'0 0.0
2018-Jul-11 18:29N 45°34' E 013°44'0 0.0
2018-Jul-11 17:59N 45°34' E 013°44'0 0.0
2018-Jul-11 17:23N 45°34' E 013°44'0 0.0
2018-Jul-11 16:59N 45°34' E 013°44'0 0.0
2018-Jul-11 16:29N 45°34' E 013°44'0 0.0
2018-Jul-11 15:59N 45°34' E 013°44'0 0.0
2018-Jul-11 15:29N 45°34' E 013°44'0 0.0
2018-Jul-11 14:59N 45°34' E 013°44'0 0.0
2018-Jul-11 14:26N 45°34' E 013°44'0 0.0
2018-Jul-11 13:56N 45°34' E 013°44'0 0.0
2018-Jul-11 13:29N 45°34' E 013°44'0 0.0
2018-Jul-11 12:59N 45°34' E 013°44'0 0.0
2018-Jul-11 12:29N 45°34' E 013°44'0 0.0
2018-Jul-11 11:56N 45°34' E 013°44'0 0.0
2018-Jul-11 11:26N 45°34' E 013°44'0 0.0
2018-Jul-11 10:59N 45°34' E 013°44'0 0.0
2018-Jul-11 10:11N 45°34' E 013°44'0 0.0
2018-Jul-11 09:59N 45°34' E 013°44'0 0.0
2018-Jul-11 09:29N 45°34' E 013°44'0 0.0
2018-Jul-11 08:59N 45°34' E 013°44'0 0.0
2018-Jul-11 08:26N 45°34' E 013°44'0 0.0
2018-Jul-11 07:59N 45°34' E 013°44'0 0.0
2018-Jul-11 07:29N 45°34' E 013°44'0 0.0
2018-Jul-11 06:53N 45°34' E 013°44'0 0.0
2018-Jul-11 06:29N 45°34' E 013°44'0 0.0
2018-Jul-11 05:59N 45°34' E 013°44'0 0.0
2018-Jul-11 05:29N 45°34' E 013°44'0 0.0
2018-Jul-11 04:50N 45°34' E 013°44'0 0.0
2018-Jul-11 04:29N 45°34' E 013°44'0 0.0
2018-Jul-11 03:59N 45°34' E 013°44'0 0.0
2018-Jul-11 03:29N 45°34' E 013°44'0 0.0
2018-Jul-11 02:56N 45°34' E 013°44'0 0.0
2018-Jul-11 02:20N 45°34' E 013°44'0 0.0
2018-Jul-11 01:59N 45°34' E 013°44'0 0.0
2018-Jul-11 01:23N 45°34' E 013°44'0 0.0
2018-Jul-11 00:59N 45°34' E 013°44'0 0.0
2018-Jul-11 00:29N 45°34' E 013°44'0 0.0
2018-Jul-10 23:59N 45°34' E 013°44'0 0.0
2018-Jul-10 23:29N 45°34' E 013°44'0 0.0
2018-Jul-10 22:59N 45°34' E 013°44'0 0.0
2018-Jul-10 22:26N 45°34' E 013°44'0 0.0
2018-Jul-10 21:56N 45°34' E 013°44'0 0.0
2018-Jul-10 21:29N 45°34' E 013°44'0 0.0
2018-Jul-10 20:56N 45°34' E 013°44'0 0.0
2018-Jul-10 20:23N 45°34' E 013°44'0 0.0
2018-Jul-10 19:56N 45°34' E 013°44'0 0.0
2018-Jul-10 19:23N 45°34' E 013°44'  

Dump ship's entire track history